Time;durP1;ratioP1;P1;durP2;ratioP2;P2;SDS_P1;SDS_P2;PMS_P1;PMS_P2;Temp;Humidity;BMP_temperature;BMP_pressure;BME280_temperature;BME280_humidity;BME280_pressure;Samples;Min_cycle;Max_cycle;Signal;HPM_P1;HPM_P2
2022/07/12 00:00:59;;;;;;;0.40;0.30;;;;;;;-143.79;100.00;62634.88;5032419;28;20149;-57
2022/07/12 00:03:25;;;;;;;0.85;0.30;;;;;;;-143.79;100.00;62634.88;5032143;28;20049;-58
2022/07/12 00:05:51;;;;;;;0.63;0.30;;;;;;;-143.79;100.00;62634.88;5032334;28;20041;-57
2022/07/12 00:08:17;;;;;;;0.20;0.20;;;25.30;75.60;;;-143.79;100.00;62634.88;5032588;28;20033;-58
2022/07/12 00:10:43;;;;;;;1.33;0.40;;;;;;;-143.79;100.00;62634.88;5032323;28;20083;-58
2022/07/12 00:13:10;;;;;;;0.73;0.43;;;;;;;-143.79;100.00;62634.88;5032182;28;20113;-58
2022/07/12 00:15:36;;;;;;;0.50;0.30;;;24.80;75.00;;;-143.79;100.00;62634.88;5032168;28;20037;-58
2022/07/12 00:18:02;;;;;;;0.43;0.43;;;25.10;91.30;;;-143.79;100.00;62634.88;5032217;28;20082;-58
2022/07/12 00:20:29;;;;;;;0.45;0.40;;;24.90;91.20;;;-143.79;100.00;62634.88;5032382;28;20111;-58
2022/07/12 00:22:55;;;;;;;0.30;0.30;;;24.90;91.20;;;-143.79;100.00;62634.88;5032191;28;20447;-58
2022/07/12 00:25:21;;;;;;;0.57;0.30;;;24.90;91.20;;;-143.79;100.00;62634.88;5032092;28;20042;-58
2022/07/12 00:27:46;;;;;;;0.30;0.20;;;25.30;91.20;;;-143.79;100.00;62634.88;5032486;28;20041;-58
2022/07/12 00:30:12;;;;;;;0.60;0.30;;;24.70;91.10;;;-143.79;100.00;62634.88;5032104;28;20088;-58
2022/07/12 00:32:38;;;;;;;0.50;0.50;;;25.00;91.20;;;-143.79;100.00;62634.88;5032073;28;20037;-57
2022/07/12 00:35:06;;;;;;;0.50;0.30;;;25.40;91.40;;;-143.79;100.00;62634.88;5032038;28;20092;-57
2022/07/12 00:37:33;;;;;;;0.30;0.30;;;25.30;58.30;;;-143.79;100.00;62634.88;5031992;28;20109;-56
2022/07/12 00:39:59;;;;;;;0.77;0.38;;;25.40;91.20;;;-143.79;100.00;62634.88;5032060;28;20042;-57
2022/07/12 00:42:26;;;;;;;0.75;0.38;;;24.50;91.00;;;-143.79;100.00;62634.88;5031917;28;20116;-57
2022/07/12 00:44:52;;;;;;;0.85;0.40;;;25.10;91.20;;;-143.79;100.00;62634.88;5031979;28;20533;-57
2022/07/12 00:47:27;;;;;;;0.40;0.40;;;24.90;91.20;;;-143.79;100.00;62634.88;5031973;28;20105;-52
2022/07/12 00:49:53;;;;;;;0.85;0.60;;;25.00;57.30;;;-143.79;100.00;62634.88;5030576;28;20480;-50
2022/07/12 00:52:19;;;;;;;0.45;0.45;;;;;;;-143.79;100.00;62634.88;5033751;28;20049;-50
2022/07/12 00:54:46;;;;;;;0.43;0.40;;;;;;;-143.79;100.00;62634.88;5034487;28;20114;-50
2022/07/12 00:57:11;;;;;;;0.70;0.43;;;24.90;91.20;;;-143.79;100.00;62634.88;5035713;28;20037;-50
2022/07/12 00:59:37;;;;;;;0.70;0.30;;;;;;;-143.79;100.00;62634.88;5035654;28;20160;-50
2022/07/12 01:02:03;;;;;;;0.63;0.38;;;24.80;68.50;;;-143.79;100.00;62634.88;5035381;28;20052;-52
2022/07/12 01:04:29;;;;;;;0.30;0.30;;;24.70;58.30;;;-143.79;100.00;62634.88;5035618;28;20116;-51
2022/07/12 01:06:55;;;;;;;0.50;0.47;;;;;;;-143.79;100.00;62634.88;5035758;28;20136;-52
2022/07/12 01:09:21;;;;;;;0.57;0.43;;;24.80;80.60;;;-143.79;100.00;62634.88;5035756;28;20061;-50
2022/07/12 01:11:47;;;;;;;0.47;0.45;;;;;;;-143.79;100.00;62634.88;5035676;28;20416;-53
2022/07/12 01:14:14;;;;;;;0.38;0.30;;;;;;;-143.79;100.00;62634.88;5034071;28;20039;-50
2022/07/12 01:16:40;;;;;;;0.65;0.60;;;25.30;90.80;;;-143.79;100.00;62634.88;5035540;28;20076;-51
2022/07/12 01:19:07;;;;;;;0.30;0.30;;;25.00;56.00;;;-143.79;100.00;62634.88;5035357;28;20045;-50
2022/07/12 01:21:38;;;;;;;1.95;0.40;;;25.00;57.40;;;-143.79;100.00;62634.88;5035518;28;20095;-50
2022/07/12 01:24:08;;;;;;;1.25;0.40;;;25.00;57.30;;;-143.79;100.00;62634.88;5034078;28;20033;-50
2022/07/12 01:26:34;;;;;;;0.90;0.45;;;;;;;-143.79;100.00;62634.88;5035165;28;20040;-50
2022/07/12 01:29:00;;;;;;;1.27;0.40;;;24.80;90.80;;;-143.79;100.00;62634.88;5033942;28;20438;-51
2022/07/12 01:31:26;;;;;;;0.85;0.57;;;25.10;87.60;;;-143.79;100.00;62634.88;5035037;28;20037;-51
2022/07/12 01:33:52;;;;;;;0.50;0.50;;;24.80;90.50;;;-143.79;100.00;62634.88;5033790;28;20040;-50
2022/07/12 01:36:18;;;;;;;0.40;0.40;;;25.30;91.00;;;-143.79;100.00;62634.88;5033699;28;20122;-51
2022/07/12 01:38:44;;;;;;;0.45;0.30;;;25.20;90.90;;;-143.79;100.00;62634.88;5035097;28;20109;-51
2022/07/12 01:41:09;;;;;;;1.13;0.47;;;24.90;90.90;;;-143.79;100.00;62634.88;5034997;28;20072;-52
2022/07/12 01:43:36;;;;;;;0.50;0.45;;;;;;;-143.79;100.00;62634.88;5034831;28;20041;-50
2022/07/12 01:46:02;;;;;;;0.88;0.40;;;;;;;-143.79;100.00;62634.88;5034948;28;20078;-50
2022/07/12 01:48:28;;;;;;;0.45;0.43;;;24.90;90.90;;;-143.79;100.00;62634.88;5034720;28;20034;-50
2022/07/12 01:50:54;;;;;;;0.40;0.35;;;;;;;-143.79;100.00;62634.88;5033401;28;20044;-51
2022/07/12 01:53:20;;;;;;;1.20;0.60;;;;;;;-143.79;100.00;62634.88;5034664;28;20033;-53
2022/07/12 01:55:46;;;;;;;0.73;0.45;;;24.90;91.20;;;-143.79;100.00;62634.88;5034730;28;20388;-51
2022/07/12 01:58:13;;;;;;;0.50;0.40;;;24.80;91.20;;;-143.79;100.00;62634.88;5034560;28;20032;-50
2022/07/12 02:00:40;;;;;;;0.30;0.30;;;24.90;58.10;;;-143.79;100.00;62634.88;5034519;28;20164;-51
2022/07/12 02:03:05;;;;;;;0.60;0.57;;;25.20;91.20;;;-143.79;100.00;62634.88;5033151;28;20041;-51
2022/07/12 02:05:31;;;;;;;0.88;0.30;;;24.60;60.50;;;-143.79;100.00;62634.88;5034350;28;20522;-51
2022/07/12 02:07:57;;;;;;;0.60;0.50;;;24.90;57.60;;;-143.79;100.00;62634.88;5033078;28;20045;-51
2022/07/12 02:10:23;;;;;;;1.08;0.55;;;;;;;-143.79;100.00;62634.88;5034348;28;20041;-50
2022/07/12 02:12:49;;;;;;;0.38;0.38;;;;;;;-143.79;100.00;62634.88;5034416;28;20393;-51
2022/07/12 02:15:15;;;;;;;0.93;0.50;;;25.00;75.90;;;-143.79;100.00;62634.88;5034152;28;20040;-51
2022/07/12 02:17:41;;;;;;;1.20;0.60;;;;;;;-143.79;100.00;62634.88;5034318;28;20034;-50
2022/07/12 02:20:11;;;;;;;1.25;0.60;;;25.10;58.20;;;-143.79;100.00;62634.88;5034166;28;20030;-51
2022/07/12 02:22:36;;;;;;;0.60;0.40;;;25.00;91.20;;;-143.79;100.00;62634.88;5032936;28;20120;-50
2022/07/12 02:25:03;;;;;;;0.40;0.38;;;24.90;91.40;;;-143.79;100.00;62634.88;5034021;28;20068;-50
2022/07/12 02:27:28;;;;;;;1.45;0.50;;;25.00;91.40;;;-143.79;100.00;62634.88;5034308;28;20041;-52
2022/07/12 02:29:54;;;;;;;0.90;0.52;;;24.90;91.50;;;-143.79;100.00;62634.88;5033916;28;20595;-51
2022/07/12 02:32:20;;;;;;;0.98;0.50;;;25.00;91.50;;;-143.79;100.00;62634.88;5034173;28;20057;-51
2022/07/12 02:34:46;;;;;;;0.57;0.38;;;25.00;91.40;;;-143.79;100.00;62634.88;5033783;28;20067;-51
2022/07/12 02:37:11;;;;;;;0.40;0.40;;;24.90;86.10;;;-143.79;100.00;62634.88;5033871;28;20041;-51
2022/07/12 02:39:37;;;;;;;0.50;0.32;;;;;;;-143.79;100.00;62634.88;5032537;28;20122;-52
2022/07/12 02:42:04;;;;;;;0.40;0.40;;;25.00;72.60;;;-143.79;100.00;62634.88;5033970;28;20030;-51
2022/07/12 02:44:29;;;;;;;1.02;0.73;;;24.60;86.50;;;-143.79;100.00;62634.88;5033683;28;20034;-51
2022/07/12 02:46:55;;;;;;;0.73;0.50;;;;;;;-143.79;100.00;62634.88;5033568;28;20079;-50
2022/07/12 02:49:21;;;;;;;0.80;0.50;;;;;;;-143.79;100.00;62634.88;5033581;28;20052;-52
2022/07/12 02:51:47;;;;;;;1.95;0.30;;;;;;;-143.79;100.00;62634.88;5033585;28;20034;-51
2022/07/12 02:54:13;;;;;;;0.63;0.40;;;;;;;-143.79;100.00;62634.88;5032216;28;20040;-50
2022/07/12 02:56:39;;;;;;;0.52;0.43;;;;;;;-143.79;100.00;62634.88;5033460;28;20037;-51
2022/07/12 02:59:06;;;;;;;0.40;0.40;;;;;;;-143.79;100.00;62634.88;5033326;28;20083;-50
2022/07/12 03:01:32;;;;;;;0.73;0.47;;;;;;;-143.79;100.00;62634.88;5033083;28;20033;-51
2022/07/12 03:03:58;;;;;;;0.50;0.50;;;;;;;-143.79;100.00;62634.88;5033301;28;20491;-51
2022/07/12 03:06:23;;;;;;;0.60;0.32;;;24.30;91.00;;;-143.79;100.00;62634.88;5032055;28;20071;-51
2022/07/12 03:08:50;;;;;;;1.02;0.50;;;;;;;-143.79;100.00;62634.88;5033538;28;20120;-51
2022/07/12 03:11:15;;;;;;;0.68;0.55;;;24.70;91.20;;;-143.79;100.00;62634.88;5033058;28;20025;-51
2022/07/12 03:13:42;;;;;;;1.05;0.55;;;;;;;-143.79;100.00;62634.88;5033467;28;20029;-51
2022/07/12 03:16:07;;;;;;;1.13;0.68;;;24.70;80.60;;;-143.79;100.00;62634.88;5032696;28;20042;-50
2022/07/12 03:18:33;;;;;;;0.52;0.40;;;25.10;60.90;;;-143.79;100.00;62634.88;5033068;28;20484;-51
2022/07/12 03:21:00;;;;;;;0.60;0.60;;;;;;;-143.79;100.00;62634.88;5033239;28;20038;-51
2022/07/12 03:23:25;;;;;;;0.85;0.60;;;24.60;79.50;;;-143.79;100.00;62634.88;5033230;28;20052;-51
2022/07/12 03:25:52;;;;;;;0.63;0.40;;;;;;;-143.79;100.00;62634.88;5032948;28;20420;-51
2022/07/12 03:28:18;;;;;;;0.40;0.38;;;24.90;91.20;;;-143.79;100.00;62634.88;5033099;28;20036;-51
2022/07/12 03:30:44;;;;;;;0.40;0.40;;;;;;;-143.79;100.00;62634.88;5033159;28;20034;-51
2022/07/12 03:33:10;;;;;;;0.40;0.30;;;;;;;-143.79;100.00;62634.88;5032854;28;20104;-51
2022/07/12 03:35:36;;;;;;;0.60;0.50;;;;;;;-143.79;100.00;62634.88;5032677;28;20067;-50
2022/07/12 03:38:03;;;;;;;2.22;0.47;;;24.70;91.20;;;-143.79;100.00;62634.88;5032676;28;20033;-51
2022/07/12 03:40:32;;;;;;;0.93;0.60;;;24.80;58.30;;;-143.79;100.00;62634.88;5031378;28;20056;-50
2022/07/12 03:42:58;;;;;;;0.85;0.40;;;;;;;-143.79;100.00;62634.88;5032854;28;20029;-50
2022/07/12 03:45:24;;;;;;;2.28;0.50;;;24.70;71.80;;;-143.79;100.00;62634.88;5032578;28;20084;-51
2022/07/12 03:47:50;;;;;;;0.63;0.40;;;24.50;91.10;;;-143.79;100.00;62634.88;5032592;28;20033;-51
2022/07/12 03:50:16;;;;;;;0.55;0.50;;;24.30;87.80;;;-143.79;100.00;62634.88;5032806;28;20034;-52
2022/07/12 03:52:43;;;;;;;0.80;0.50;;;24.50;91.20;;;-143.79;100.00;62634.88;5032449;28;20044;-51
2022/07/12 03:55:11;;;;;;;0.50;0.50;;;24.50;91.20;;;-143.79;100.00;62634.88;5032596;28;20399;-50
2022/07/12 03:57:37;;;;;;;0.40;0.40;;;25.10;91.30;;;-143.79;100.00;62634.88;5031191;28;20030;-51
2022/07/12 04:00:12;;;;;;;1.60;0.60;;;24.70;91.30;;;-143.79;100.00;62634.88;5032367;28;20648;-51
2022/07/12 04:02:39;;;;;;;0.55;0.40;;;24.60;91.30;;;-143.79;100.00;62634.88;5032167;28;20082;-53
2022/07/12 04:05:07;;;;;;;0.60;0.45;;;24.90;61.90;;;-143.79;100.00;62634.88;5032322;28;20029;-51
2022/07/12 04:07:33;;;;;;;1.10;0.43;;;;;;;-143.79;100.00;62634.88;5032395;28;20168;-53
2022/07/12 04:09:59;;;;;;;0.63;0.45;;;;;;;-143.79;100.00;62634.88;5032343;28;20040;-51
2022/07/12 04:12:25;;;;;;;0.60;0.43;;;;;;;-143.79;100.00;62634.88;5032218;28;20029;-51
2022/07/12 04:14:52;;;;;;;0.95;0.25;;;;;;;-143.79;100.00;62634.88;5032169;28;20037;-51
2022/07/12 04:17:17;;;;;;;0.50;0.50;;;24.90;80.40;;;-143.79;100.00;62634.88;5032155;28;20103;-51
2022/07/12 04:19:43;;;;;;;0.73;0.50;;;;;;;-143.79;100.00;62634.88;5032153;28;20479;-50
2022/07/12 04:22:09;;;;;;;0.60;0.60;;;;;;;-143.79;100.00;62634.88;5032109;28;20041;-50
2022/07/12 04:24:35;;;;;;;0.88;0.50;;;;;;;-143.79;100.00;62634.88;5032113;28;20563;-50
2022/07/12 04:27:01;;;;;;;2.00;0.50;;;;;;;-143.79;100.00;62634.88;5033649;28;20103;-51
2022/07/12 04:29:28;;;;;;;0.38;0.30;;;;;;;-143.79;100.00;62634.88;5036149;28;20096;-50
2022/07/12 04:31:53;;;;;;;0.50;0.50;;;24.50;79.70;;;-143.79;100.00;62634.88;5036166;28;20087;-50
2022/07/12 04:34:19;;;;;;;0.60;0.60;;;;;;;-143.79;100.00;62634.88;5036022;28;20436;-53
2022/07/12 04:36:46;;;;;;;0.47;0.47;;;;;;;-143.79;100.00;62634.88;5036085;28;20041;-53
2022/07/12 04:39:12;;;;;;;0.40;0.40;;;;;;;-143.79;100.00;62634.88;5036277;28;20373;-52
2022/07/12 04:41:38;;;;;;;0.60;0.43;;;24.80;91.30;;;-143.79;100.00;62634.88;5035989;28;20045;-50
2022/07/12 04:44:07;;;;;;;0.90;0.50;;;24.70;88.80;;;-143.79;100.00;62634.88;5036071;28;20404;-51
2022/07/12 04:46:33;;;;;;;1.00;0.70;;;24.70;56.50;;;-143.79;100.00;62634.88;5035960;28;20033;-50
2022/07/12 04:49:00;;;;;;;0.50;0.50;;;;;;;-143.79;100.00;62634.88;5035828;28;20041;-50
2022/07/12 04:51:26;;;;;;;0.95;0.70;;;24.80;91.30;;;-143.79;100.00;62634.88;5035808;28;20104;-51
2022/07/12 04:53:52;;;;;;;0.70;0.70;;;24.70;91.40;;;-143.79;100.00;62634.88;5036054;28;20391;-50
2022/07/12 04:56:18;;;;;;;0.85;0.63;;;;;;;-143.79;100.00;62634.88;5034356;28;20157;-51
2022/07/12 04:58:44;;;;;;;1.73;0.80;;;25.00;91.30;;;-143.79;100.00;62634.88;5035672;28;20109;-51
2022/07/12 05:01:10;;;;;;;0.93;0.93;;;24.90;91.30;;;-143.79;100.00;62634.88;5035821;28;20160;-50
2022/07/12 05:03:36;;;;;;;1.48;1.30;;;;;;;-143.79;100.00;62634.88;5035480;28;20044;-51
2022/07/12 05:06:01;;;;;;;1.60;1.50;;;24.80;90.80;;;-143.79;100.00;62634.88;5035602;28;20037;-52
2022/07/12 05:08:27;;;;;;;1.75;1.65;;;;;;;-143.79;100.00;62634.88;5035442;28;20036;-51
2022/07/12 05:10:54;;;;;;;1.70;1.60;;;;;;;-143.79;100.00;62634.88;5035504;28;20026;-50
2022/07/12 05:13:20;;;;;;;2.30;2.03;;;;;;;-143.79;100.00;62634.88;5035340;28;20036;-51
2022/07/12 05:15:46;;;;;;;2.03;1.92;;;;;;;-143.79;100.00;62634.88;5035460;28;20030;-51
2022/07/12 05:18:13;;;;;;;1.98;1.83;;;;;;;-143.79;100.00;62634.88;5035333;28;20522;-51
2022/07/12 05:20:38;;;;;;;1.90;1.80;;;24.90;91.30;;;-143.79;100.00;62634.88;5035545;28;20033;-51
2022/07/12 05:23:04;;;;;;;1.60;1.50;;;24.30;91.20;;;-143.79;100.00;62634.88;5035364;28;20037;-51
2022/07/12 05:25:30;;;;;;;1.63;1.52;;;24.20;91.20;;;-143.79;100.00;62634.88;5035491;28;20033;-51
2022/07/12 05:27:55;;;;;;;1.95;1.70;;;24.20;73.80;;;-143.79;100.00;62634.88;5033871;28;20075;-51
2022/07/12 05:30:21;;;;;;;3.38;1.50;;;;;;;-143.79;100.00;62634.88;5035145;28;20057;-51
2022/07/12 05:32:47;;;;;;;3.03;1.60;;;;;;;-143.79;100.00;62634.88;5035065;28;20040;-51
2022/07/12 05:35:13;;;;;;;1.92;1.60;;;;;;;-143.79;100.00;62634.88;5034963;28;20084;-51
2022/07/12 05:37:39;;;;;;;2.50;2.10;;;24.60;67.90;;;-143.79;100.00;62634.88;5034818;28;20048;-51
2022/07/12 05:40:06;;;;;;;1.40;1.30;;;24.60;57.10;;;-143.79;100.00;62634.88;5034969;28;20034;-51
2022/07/12 05:42:32;;;;;;;1.70;1.60;;;24.70;91.40;;;-143.79;100.00;62634.88;5033546;28;20036;-49
2022/07/12 05:44:58;;;;;;;1.80;1.70;;;;;;;-143.79;100.00;62634.88;5035064;28;20029;-50
2022/07/12 05:47:23;;;;;;;1.73;1.58;;;24.90;82.00;;;-143.79;100.00;62634.88;5034770;28;20037;-50
2022/07/12 05:49:49;;;;;;;2.88;1.60;;;;;;;-143.79;100.00;62634.88;5034661;28;20037;-50
2022/07/12 05:55:00;;;;;;;3.08;2.08;;;;;;;-143.79;100.00;62634.88;5034821;28;20045;-51
2022/07/12 05:57:26;;;;;;;3.67;2.13;;;25.10;91.60;;;-143.79;100.00;62634.88;5034673;28;20025;-52
2022/07/12 05:59:52;;;;;;;4.70;1.90;;;24.50;91.50;;;-143.79;100.00;62634.88;5034591;28;20380;-56
2022/07/12 06:02:18;;;;;;;6.57;2.28;;;24.90;91.70;;;-143.79;100.00;62634.88;5033097;28;20049;-58
2022/07/12 06:04:43;;;;;;;3.92;2.00;;;24.80;85.60;;;-143.79;100.00;62634.88;5034409;28;20036;-58
2022/07/12 06:07:09;;;;;;;4.95;1.73;;;;;;;-143.79;100.00;62634.88;5033198;28;20077;-58
2022/07/12 06:09:36;;;;;;;2.03;1.40;;;;;;;-143.79;100.00;62634.88;5034425;28;20108;-57
2022/07/12 06:12:02;;;;;;;2.33;1.42;;;24.70;86.00;;;-143.79;100.00;62634.88;5034354;28;20022;-58
2022/07/12 06:14:28;;;;;;;5.30;1.70;;;24.60;91.30;;;-143.79;100.00;62634.88;5034207;28;20041;-58
2022/07/12 06:16:53;;;;;;;5.60;1.50;;;24.80;89.10;;;-143.79;100.00;62634.88;5034351;28;20522;-57
2022/07/12 06:19:19;;;;;;;3.05;1.20;;;;;;;-143.79;100.00;62634.88;5034342;28;20072;-58
2022/07/12 06:21:46;;;;;;;5.32;1.50;;;;;;;-143.79;100.00;62634.88;5034089;28;20456;-58
2022/07/12 06:24:12;;;;;;;2.72;1.40;;;;;;;-143.79;100.00;62634.88;5034158;28;20040;-57
2022/07/12 06:26:38;;;;;;;1.98;1.23;;;;;;;-143.79;100.00;62634.88;5034095;28;20503;-57
2022/07/12 06:29:04;;;;;;;2.15;1.00;;;;;;;-143.79;100.00;62634.88;5033968;28;20048;-55
2022/07/12 06:31:29;;;;;;;1.23;1.13;;;24.50;87.20;;;-143.79;100.00;62634.88;5033998;28;20542;-56
2022/07/12 06:33:56;;;;;;;1.85;1.10;;;;;;;-143.79;100.00;62634.88;5033934;28;20071;-56
2022/07/12 06:36:22;;;;;;;3.97;0.95;;;;;;;-143.79;100.00;62634.88;5033891;28;20030;-56
2022/07/12 06:38:48;;;;;;;1.77;1.23;;;;;;;-143.79;100.00;62634.88;5033812;28;20034;-56
2022/07/12 06:41:14;;;;;;;2.65;1.02;;;;;;;-143.79;100.00;62634.88;5032165;28;20539;-55
2022/07/12 06:43:40;;;;;;;3.40;1.00;;;24.90;91.50;;;-143.79;100.00;62634.88;5032994;28;20043;-56
2022/07/12 06:46:05;;;;;;;1.60;1.05;;;24.70;79.80;;;-143.79;100.00;62634.88;5033887;28;20373;-57
2022/07/12 06:48:31;;;;;;;3.03;0.90;;;;;;;-143.79;100.00;62634.88;5033613;28;20029;-56
2022/07/12 06:50:57;;;;;;;3.60;1.00;;;;;;;-143.79;100.00;62634.88;5032966;28;20484;-53
2022/07/12 06:53:24;;;;;;;2.72;1.23;;;;;;;-143.79;100.00;62634.88;5033615;28;20112;-54
2022/07/12 06:55:50;;;;;;;1.42;0.90;;;25.00;74.00;;;-143.79;100.00;62634.88;5033469;28;20037;-53
2022/07/12 06:58:16;;;;;;;2.90;1.20;;;;;;;-143.79;100.00;62634.88;5032300;28;20025;-51
2022/07/12 07:00:42;;;;;;;1.52;1.00;;;24.70;91.70;;;-143.79;100.00;62634.88;5034007;28;20040;-52
2022/07/12 07:03:08;;;;;;;1.35;1.05;;;24.60;91.50;;;-143.79;100.00;62634.88;5033676;28;20054;-52
2022/07/12 07:05:36;;;;;;;1.77;1.05;;;;;;;-143.79;100.00;62634.88;5033752;28;20503;-53
2022/07/12 07:08:03;;;;;;;2.40;0.90;;;;;;;-143.79;100.00;62634.88;5034007;28;20088;-54
2022/07/12 07:10:28;;;;;;;3.17;0.90;;;24.90;91.60;;;-143.79;100.00;62634.88;5033778;28;20037;-53
2022/07/12 07:12:54;;;;;;;1.10;0.85;;;24.90;91.70;;;-143.79;100.00;62634.88;5033388;28;20442;-50
2022/07/12 07:15:20;;;;;;;1.88;1.00;;;25.40;91.80;;;-143.79;100.00;62634.88;5033507;28;20038;-51
2022/07/12 07:17:46;;;;;;;3.58;0.85;;;25.20;91.50;;;-143.79;100.00;62634.88;5033536;28;20480;-50
2022/07/12 07:20:12;;;;;;;1.38;0.90;;;25.50;91.70;;;-143.79;100.00;62634.88;5032040;28;20506;-50
2022/07/12 07:22:39;;;;;;;1.55;1.00;;;24.70;61.40;;;-143.79;100.00;62634.88;5033145;28;20037;-50
2022/07/12 07:25:06;;;;;;;0.85;0.75;;;25.00;91.40;;;-143.79;100.00;62634.88;5033018;28;20116;-50
2022/07/12 07:27:32;;;;;;;1.63;0.90;;;25.50;90.90;;;-143.79;100.00;62634.88;5032946;28;20052;-50
2022/07/12 07:32:42;;;;;;;5.93;0.70;;;25.50;77.60;;;-143.79;100.00;62634.88;5032983;28;20099;-50
2022/07/12 07:35:08;;;;;;;3.50;0.80;;;25.40;91.40;;;-143.79;100.00;62634.88;5033089;28;20032;-51
2022/07/12 07:37:34;;;;;;;2.30;0.80;;;25.20;91.30;;;-143.79;100.00;62634.88;5033060;28;20041;-52
2022/07/12 07:40:00;;;;;;;5.75;0.90;;;25.50;91.40;;;-143.79;100.00;62634.88;5031503;28;20083;-51
2022/07/12 07:42:26;;;;;;;3.67;1.17;;;25.40;91.30;;;-143.79;100.00;62634.88;5032670;28;20037;-50
2022/07/12 07:44:52;;;;;;;2.75;0.70;;;25.30;91.30;;;-143.79;100.00;62634.88;5031389;28;20031;-49
2022/07/12 07:47:17;;;;;;;2.55;0.85;;;25.70;69.90;;;-143.79;100.00;62634.88;5032938;28;20037;-51
2022/07/12 07:49:43;;;;;;;1.58;0.82;;;;;;;-143.79;100.00;62634.88;5032675;28;20060;-51
2022/07/12 07:52:09;;;;;;;1.35;0.90;;;;;;;-143.79;100.00;62634.88;5032432;28;20029;-50
2022/07/12 07:54:35;;;;;;;2.90;0.70;;;;;;;-143.79;100.00;62634.88;5032343;28;20034;-50
2022/07/12 07:57:02;;;;;;;1.50;0.90;;;;;;;-143.79;100.00;62634.88;5032577;28;20071;-52
2022/07/12 07:59:27;;;;;;;2.83;0.77;;;25.60;69.80;;;-143.79;100.00;62634.88;5032509;28;20037;-50
2022/07/12 08:01:53;;;;;;;1.40;0.77;;;;;;;-143.79;100.00;62634.88;5031214;28;20057;-50
2022/07/12 08:04:21;;;;;;;1.25;0.73;;;25.80;58.50;;;-143.79;100.00;62634.88;5032287;28;20499;-49
2022/07/12 08:06:49;;;;;;;2.45;1.20;;;25.80;58.50;;;-143.79;100.00;62634.88;5032397;28;20056;-49
2022/07/12 08:09:15;;;;;;;1.67;0.75;;;26.00;91.20;;;-143.79;100.00;62634.88;5032395;28;20040;-49
2022/07/12 08:11:42;;;;;;;3.83;0.85;;;25.60;56.50;;;-143.79;100.00;62634.88;5032219;28;20044;-49
2022/07/12 08:14:08;;;;;;;1.05;0.63;;;25.70;86.50;;;-143.79;100.00;62634.88;5032281;28;20487;-49
2022/07/12 08:16:35;;;;;;;1.00;0.82;;;;;;;-143.79;100.00;62634.88;5032202;28;20037;-51
2022/07/12 08:19:01;;;;;;;1.33;0.70;;;25.80;75.80;;;-143.79;100.00;62634.88;5032671;28;20076;-51
2022/07/12 08:21:27;;;;;;;0.75;0.70;;;25.70;89.00;;;-143.79;100.00;62634.88;5031098;28;20037;-49
2022/07/12 08:23:54;;;;;;;1.10;0.80;;;;;;;-143.79;100.00;62634.88;5031103;28;20037;-50
2022/07/12 08:26:20;;;;;;;0.88;0.63;;;25.50;91.20;;;-143.79;100.00;62634.88;5032139;28;20037;-50
2022/07/12 08:28:46;;;;;;;2.42;1.10;;;25.70;91.30;;;-143.79;100.00;62634.88;5032165;28;20472;-50
2022/07/12 08:31:15;;;;;;;0.63;0.60;;;;;;;-143.79;100.00;62634.88;5032240;28;20172;-50
2022/07/12 08:33:41;;;;;;;1.10;0.77;;;25.40;74.60;;;-143.79;100.00;62634.88;5032064;28;20029;-49
2022/07/12 08:36:08;;;;;;;3.05;0.98;;;25.70;57.60;;;-143.79;100.00;62634.88;5031978;28;20125;-53
2022/07/12 08:38:36;;;;;;;0.95;0.73;;;25.50;91.20;;;-143.79;100.00;62634.88;5032305;28;20034;-51
2022/07/12 08:41:05;;;;;;;2.47;1.02;;;26.00;91.30;;;-143.79;100.00;62634.88;5032033;28;20499;-50
2022/07/12 08:43:35;;;;;;;2.47;0.75;;;25.70;55.50;;;-143.79;100.00;62634.88;5032013;28;20442;-51
2022/07/12 08:46:13;;;;;;;1.60;0.70;;;25.30;61.30;;;-143.79;100.00;62634.88;5032022;28;20030;-50
2022/07/12 08:48:40;;;;;;;3.40;1.02;;;25.90;91.40;;;-143.79;100.00;62634.88;5032010;28;20033;-50
2022/07/12 08:51:12;;;;;;;1.40;1.00;;;25.70;91.20;;;-143.79;100.00;62634.88;5031928;28;20087;-50
2022/07/12 08:53:39;;;;;;;1.13;0.93;;;25.60;91.10;;;-143.79;100.00;62634.88;5031978;28;20025;-50
2022/07/12 08:56:06;;;;;;;0.90;0.90;;;;;;;-143.79;100.00;62634.88;5031768;28;20100;-50
2022/07/12 08:58:32;;;;;;;0.90;0.90;;;25.90;91.40;;;-143.79;100.00;62634.88;5032297;28;20033;-51
2022/07/12 09:00:58;;;;;;;1.55;1.10;;;25.30;91.20;;;-143.79;100.00;62634.88;5032144;28;20033;-49
2022/07/12 09:03:24;;;;;;;1.10;1.00;;;;;;;-143.79;100.00;62634.88;5031640;28;20424;-49
2022/07/12 09:05:56;;;;;;;1.50;1.08;;;25.60;55.10;;;-143.79;100.00;62634.88;5031642;28;20096;-50
2022/07/12 09:08:35;;;;;;;1.10;1.00;;;25.90;76.40;;;-143.79;100.00;62634.88;5031812;28;20033;-50
2022/07/12 09:11:03;;;;;;;3.22;1.17;;;25.80;91.40;;;-143.79;100.00;62634.88;5031604;28;20041;-50
2022/07/12 09:13:55;;;;;;;1.17;0.90;;;25.50;62.00;;;-143.79;100.00;62634.88;5033889;28;20033;-50
2022/07/12 09:16:26;;;;;;;1.10;0.95;;;25.80;58.30;;;-143.79;100.00;62634.88;5035343;28;20046;-48
2022/07/12 09:19:12;;;;;;;0.80;0.80;;;25.80;57.00;;;-143.79;100.00;62634.88;5035240;28;20036;-49
2022/07/12 09:21:38;;;;;;;1.13;0.88;;;;;;;-143.79;100.00;62634.88;5035516;28;20463;-47
2022/07/12 09:24:04;;;;;;;2.08;1.25;;;26.10;77.70;;;-143.79;100.00;62634.88;5034012;28;20091;-50
2022/07/12 09:26:32;;;;;;;1.58;1.30;;;25.90;58.20;;;-143.79;100.00;62634.88;5033986;28;20403;-49
2022/07/12 09:29:10;;;;;;;2.75;1.15;;;25.90;55.00;;;-143.79;100.00;62634.88;5035228;28;20515;-48
2022/07/12 09:37:20;;;;;;;1.42;0.75;;;25.90;90.90;;;-143.79;100.00;62634.88;5035142;28;20052;-50
2022/07/12 09:39:47;;;;;;;1.23;0.98;;;26.40;91.20;;;-143.79;100.00;62634.88;5035014;28;20488;-49
2022/07/12 09:42:13;;;;;;;2.13;1.00;;;;;;;-143.79;100.00;62634.88;5034965;28;20443;-49
2022/07/12 09:44:41;;;;;;;1.02;0.90;;;26.00;57.90;;;-143.79;100.00;62634.88;5034971;28;20037;-49
2022/07/12 09:47:15;;;;;;;1.60;0.90;;;26.40;91.20;;;-143.79;100.00;62634.88;5035219;28;20113;-48
2022/07/12 09:49:45;;;;;;;4.50;1.33;;;26.10;56.50;;;-143.79;100.00;62634.88;5034813;28;20036;-48
2022/07/12 09:52:19;;;;;;;2.70;1.00;;;26.10;91.00;;;-143.79;100.00;62634.88;5033629;28;20533;-49
2022/07/12 09:54:46;;;;;;;3.80;1.20;;;26.20;57.90;;;-143.79;100.00;62634.88;5034598;28;20079;-49
2022/07/12 09:57:31;;;;;;;1.25;1.17;;;26.80;91.10;;;-143.79;100.00;62634.88;5033888;28;20041;-48
2022/07/12 10:00:00;;;;;;;1.92;1.10;;;26.50;57.40;;;-143.79;100.00;62634.88;5034615;28;20036;-49
2022/07/12 10:02:26;;;;;;;1.63;1.25;;;26.40;56.80;;;-143.79;100.00;62634.88;5034294;28;20045;-49
2022/07/12 10:04:53;;;;;;;1.23;1.10;;;26.50;91.00;;;-143.79;100.00;62634.88;5034458;28;20049;-48
2022/07/12 10:07:19;;;;;;;2.60;1.42;;;;;;;-143.79;100.00;62634.88;5033567;28;20395;-48
2022/07/12 10:09:55;;;;;;;5.22;1.55;;;24.90;56.70;;;-143.79;100.00;62634.88;5034386;28;20167;-47
2022/07/12 10:12:23;;;;;;;1.23;1.13;;;26.60;57.20;;;-143.79;100.00;62634.88;5034327;28;20039;-48
2022/07/12 10:14:57;;;;;;;4.53;1.20;;;26.60;90.70;;;-143.79;100.00;62634.88;5032958;28;20033;-49
2022/07/12 10:17:24;;;;;;;1.77;1.55;;;26.60;90.70;;;-143.79;100.00;62634.88;5032533;28;20041;-49
2022/07/12 10:20:23;;;;;;;1.30;1.20;;;26.60;57.20;;;-143.79;100.00;62634.88;5033415;28;20021;-49
2022/07/12 10:22:52;;;;;;;5.82;1.30;;;26.60;90.50;;;-143.79;100.00;62634.88;5034177;28;20045;-50
2022/07/12 10:25:34;;;;;;;2.83;1.30;;;26.60;53.80;;;-143.79;100.00;62634.88;5033378;28;20041;-49
2022/07/12 10:28:02;;;;;;;1.77;1.58;;;26.60;56.40;;;-143.79;100.00;62634.88;5033938;28;20033;-51
2022/07/12 10:30:29;;;;;;;1.27;1.17;;;;;;;-143.79;100.00;62634.88;5034033;28;20169;-50
2022/07/12 10:32:58;;;;;;;5.43;1.30;;;26.40;90.30;;;-143.79;100.00;62634.88;5033920;28;20025;-50